createdAt,value
2022-08-28T00:01:24.804Z,70.21
2022-08-28T00:03:51.361Z,70.23
2022-08-28T00:06:17.886Z,70.38
2022-08-28T00:08:44.509Z,70.33
2022-08-28T00:11:11.097Z,70.52
2022-08-28T00:13:37.679Z,70.40
2022-08-28T00:16:04.731Z,70.65
2022-08-28T00:18:32.750Z,70.83
2022-08-28T00:21:00.172Z,70.84
2022-08-28T00:23:28.419Z,70.81
2022-08-28T00:26:09.056Z,70.90
2022-08-28T00:28:35.585Z,71.12
2022-08-28T00:31:02.265Z,70.95
2022-08-28T00:33:32.212Z,71.06
2022-08-28T00:36:01.253Z,70.89
2022-08-28T00:38:29.577Z,70.96
2022-08-28T00:41:00.316Z,70.91
2022-08-28T00:43:34.836Z,70.87
2022-08-28T00:46:01.954Z,71.00
2022-08-28T00:48:28.847Z,70.77
2022-08-28T00:50:56.873Z,71.14
2022-08-28T00:53:32.871Z,71.03
2022-08-28T00:56:04.186Z,70.97
2022-08-28T00:58:37.986Z,71.05
2022-08-28T01:01:04.963Z,71.13
2022-08-28T01:03:31.617Z,71.10
2022-08-28T01:05:58.336Z,71.01
2022-08-28T01:08:24.926Z,71.14
2022-08-28T01:11:01.407Z,71.51
2022-08-28T01:13:29.766Z,71.72
2022-08-28T01:15:56.982Z,71.90
2022-08-28T01:18:25.010Z,71.78
2022-08-28T01:20:58.906Z,71.80
2022-08-28T01:23:36.841Z,71.99
2022-08-28T01:26:10.746Z,72.33
2022-08-28T01:28:38.759Z,72.37
2022-08-28T01:31:05.356Z,72.48
2022-08-28T01:33:31.966Z,72.67
2022-08-28T01:35:58.470Z,72.64
2022-08-28T01:38:26.899Z,72.43
2022-08-28T01:40:57.365Z,72.52
2022-08-28T01:46:06.924Z,72.75
2022-08-28T01:48:36.004Z,73.01
2022-08-28T01:51:03.120Z,73.08
2022-08-28T01:53:32.513Z,73.10
2022-08-28T01:56:01.784Z,72.93
2022-08-28T01:58:30.105Z,72.99
2022-08-28T02:00:57.288Z,72.80
2022-08-28T02:03:24.345Z,72.71
2022-08-28T02:05:51.087Z,72.54
2022-08-28T02:08:17.668Z,72.57
2022-08-28T02:10:44.425Z,72.50
2022-08-28T02:13:12.931Z,72.56
2022-08-28T02:15:41.652Z,72.43
2022-08-28T02:18:08.528Z,72.51
2022-08-28T02:20:35.945Z,72.61
2022-08-28T02:23:02.549Z,72.63
2022-08-28T02:25:29.387Z,72.80
2022-08-28T02:27:56.566Z,72.86
2022-08-28T02:30:24.613Z,72.98
2022-08-28T02:32:51.751Z,73.07
2022-08-28T02:35:20.913Z,72.97
2022-08-28T02:37:47.753Z,73.01
2022-08-28T02:40:16.518Z,73.25
2022-08-28T02:42:43.624Z,73.26
2022-08-28T02:45:12.559Z,73.17
2022-08-28T02:47:42.710Z,73.25
2022-08-28T02:50:11.457Z,73.18
2022-08-28T02:52:38.594Z,73.40
2022-08-28T02:55:06.542Z,73.49
2022-08-28T02:57:33.485Z,73.39
2022-08-28T03:00:00.001Z,73.46
2022-08-28T03:02:26.665Z,73.73
2022-08-28T03:04:54.590Z,73.71
2022-08-28T03:07:21.126Z,73.87
2022-08-28T03:09:47.669Z,73.74
2022-08-28T03:12:14.214Z,73.50
2022-08-28T03:14:40.732Z,73.71
2022-08-28T03:17:07.343Z,73.88
2022-08-28T03:19:34.522Z,74.08
2022-08-28T03:22:02.464Z,74.26
2022-08-28T03:24:29.008Z,74.49
2022-08-28T03:26:55.546Z,74.37
2022-08-28T03:29:22.149Z,74.47
2022-08-28T03:31:48.819Z,74.54
2022-08-28T03:34:15.368Z,74.47
2022-08-28T03:36:41.919Z,74.44
2022-08-28T03:39:10.214Z,74.38
2022-08-28T03:41:36.765Z,74.38
2022-08-28T03:44:03.770Z,74.35
2022-08-28T03:46:31.998Z,74.23
2022-08-28T03:48:59.357Z,74.06
2022-08-28T03:51:34.058Z,73.87
2022-08-28T03:54:01.975Z,74.00
2022-08-28T03:56:30.516Z,73.83
2022-08-28T03:58:59.492Z,73.90
2022-08-28T04:01:26.295Z,73.75
2022-08-28T04:03:53.008Z,73.86
2022-08-28T04:06:19.978Z,74.13
2022-08-28T04:08:47.374Z,74.16
2022-08-28T04:11:13.942Z,74.02
2022-08-28T04:13:41.966Z,73.95
2022-08-28T04:16:11.743Z,74.07
2022-08-28T04:18:40.777Z,73.75
2022-08-28T04:21:09.130Z,73.73
2022-08-28T04:23:37.481Z,73.64
2022-08-28T04:26:04.514Z,73.49
2022-08-28T04:28:31.401Z,73.22
2022-08-28T04:30:59.748Z,73.66
2022-08-28T04:33:28.457Z,73.26
2022-08-28T04:35:55.912Z,73.08
2022-08-28T04:38:22.776Z,73.33
2022-08-28T04:40:49.569Z,73.34
2022-08-28T04:43:16.210Z,73.19
2022-08-28T04:45:45.262Z,72.99
2022-08-28T04:48:14.430Z,72.61
2022-08-28T04:50:41.656Z,72.56
2022-08-28T04:53:08.223Z,72.43
2022-08-28T04:55:53.623Z,72.64
2022-08-28T04:58:23.741Z,72.48
2022-08-28T05:00:52.319Z,72.44
2022-08-28T05:03:21.028Z,72.23
2022-08-28T05:05:50.797Z,72.19
2022-08-28T05:08:19.133Z,71.58
2022-08-28T05:10:46.374Z,71.86
2022-08-28T05:13:14.517Z,71.71
2022-08-28T05:15:41.857Z,71.64
2022-08-28T05:18:08.684Z,71.42
2022-08-28T05:20:37.339Z,71.47
2022-08-28T05:23:04.877Z,71.33
2022-08-28T05:25:35.031Z,70.74
2022-08-28T05:28:01.820Z,69.87
2022-08-28T05:30:28.353Z,69.41
2022-08-28T05:32:54.940Z,68.70
2022-08-28T05:35:22.142Z,67.35
2022-08-28T05:37:50.434Z,66.19
2022-08-28T05:40:17.135Z,64.64
2022-08-28T05:42:43.785Z,64.91
2022-08-28T05:45:10.634Z,64.69
2022-08-28T05:47:37.238Z,64.35
2022-08-28T05:50:04.339Z,64.64
2022-08-28T05:52:30.938Z,64.28
2022-08-28T05:54:58.806Z,63.83
2022-08-28T05:57:25.425Z,63.51
2022-08-28T05:59:52.112Z,63.05
2022-08-28T06:02:18.726Z,62.24
2022-08-28T06:04:45.439Z,62.74
2022-08-28T06:07:11.993Z,62.56
2022-08-28T06:09:38.675Z,62.62
2022-08-28T06:12:07.106Z,62.83
2022-08-28T06:14:34.497Z,62.39
2022-08-28T06:17:02.005Z,61.83
2022-08-28T06:19:30.591Z,61.67
2022-08-28T06:22:00.013Z,61.74
2022-08-28T06:24:28.348Z,61.79
2022-08-28T06:26:58.108Z,61.20
2022-08-28T06:29:27.758Z,61.30
2022-08-28T06:31:56.859Z,60.78
2022-08-28T06:34:23.523Z,60.31
2022-08-28T06:36:53.828Z,60.48
2022-08-28T06:39:21.896Z,60.88
2022-08-28T06:41:48.568Z,60.87
2022-08-28T06:44:18.621Z,60.20
2022-08-28T06:46:48.875Z,60.13
2022-08-28T06:49:15.437Z,59.93
2022-08-28T06:51:42.126Z,59.18
2022-08-28T06:54:09.103Z,59.30
2022-08-28T06:56:35.747Z,58.88
2022-08-28T06:59:02.527Z,59.17
2022-08-28T07:01:31.508Z,58.45
2022-08-28T07:04:01.084Z,58.52
2022-08-28T07:06:30.536Z,58.78
2022-08-28T07:08:57.092Z,58.38
2022-08-28T07:11:25.965Z,58.82
2022-08-28T07:13:54.083Z,58.95
2022-08-28T07:16:22.696Z,57.98
2022-08-28T07:18:49.594Z,57.63
2022-08-28T07:21:17.808Z,57.56
2022-08-28T07:23:44.952Z,58.14
2022-08-28T07:26:15.344Z,57.52
2022-08-28T07:28:42.109Z,57.56
2022-08-28T07:31:10.977Z,56.65
2022-08-28T07:33:38.035Z,56.14
2022-08-28T07:36:06.326Z,55.64
2022-08-28T07:38:34.783Z,55.03
2022-08-28T07:41:01.395Z,55.14
2022-08-28T07:43:27.991Z,53.62
2022-08-28T07:45:58.371Z,54.25
2022-08-28T07:48:25.039Z,54.61
2022-08-28T07:50:51.985Z,54.88
2022-08-28T07:53:18.551Z,54.97
2022-08-28T07:55:49.418Z,53.59
2022-08-28T07:58:16.198Z,53.24
2022-08-28T08:00:42.746Z,53.57
2022-08-28T08:03:09.433Z,52.43
2022-08-28T08:05:36.041Z,52.57
2022-08-28T08:08:03.504Z,52.52
2022-08-28T08:10:33.931Z,52.30
2022-08-28T08:13:02.860Z,51.84
2022-08-28T08:15:31.365Z,51.93
2022-08-28T08:17:58.108Z,51.69
2022-08-28T08:20:24.675Z,51.08
2022-08-28T08:22:51.241Z,51.50
2022-08-28T08:25:17.869Z,51.42
2022-08-28T08:27:44.506Z,51.28
2022-08-28T08:30:13.014Z,51.49
2022-08-28T08:32:39.610Z,51.09
2022-08-28T08:35:06.601Z,50.87
2022-08-28T08:37:33.216Z,50.68
2022-08-28T08:39:59.805Z,50.10
2022-08-28T08:42:29.855Z,49.64
2022-08-28T08:44:58.547Z,50.23
2022-08-28T08:47:36.619Z,49.38
2022-08-28T08:50:07.808Z,49.68
2022-08-28T08:52:49.985Z,49.60
2022-08-28T08:55:22.329Z,49.28
2022-08-28T08:57:56.932Z,48.39
2022-08-28T09:00:24.532Z,49.15
2022-08-28T09:03:00.248Z,48.31
2022-08-28T09:05:40.258Z,47.31
2022-08-28T09:08:12.490Z,47.57
2022-08-28T09:10:47.574Z,48.02
2022-08-28T09:13:25.874Z,48.08
2022-08-28T09:15:52.696Z,46.85
2022-08-28T09:18:23.810Z,46.21
2022-08-28T09:20:52.576Z,47.01
2022-08-28T09:23:20.966Z,46.71
2022-08-28T09:25:55.547Z,45.83
2022-08-28T09:28:25.006Z,44.87
2022-08-28T09:30:58.929Z,45.83
2022-08-28T09:33:36.841Z,44.33
2022-08-28T09:36:28.555Z,43.42
2022-08-28T09:39:11.340Z,42.23
2022-08-28T09:41:52.012Z,44.30
2022-08-28T09:44:18.591Z,45.12
2022-08-28T09:46:48.462Z,43.91
2022-08-28T09:49:23.684Z,43.19
2022-08-28T09:51:50.336Z,43.27
2022-08-28T09:54:21.806Z,42.82
2022-08-28T09:56:49.745Z,42.96
2022-08-28T09:59:18.983Z,42.53
2022-08-28T10:01:58.750Z,42.35
2022-08-28T10:04:54.383Z,41.65
2022-08-28T10:07:29.768Z,42.22
2022-08-28T10:10:09.631Z,42.77
2022-08-28T10:12:42.974Z,43.22
2022-08-28T10:15:17.889Z,42.43
2022-08-28T10:18:04.192Z,42.29
2022-08-28T10:20:44.805Z,42.17
2022-08-28T10:23:19.243Z,42.60
2022-08-28T10:25:55.501Z,42.15
2022-08-28T10:28:34.263Z,42.00
2022-08-28T10:31:13.007Z,41.36
2022-08-28T10:33:55.821Z,41.08
2022-08-28T10:36:34.780Z,40.96
2022-08-28T10:39:14.518Z,40.94
2022-08-28T10:41:45.592Z,40.10
2022-08-28T10:44:17.806Z,40.23
2022-08-28T10:46:49.446Z,39.66
2022-08-28T10:49:23.283Z,39.04
2022-08-28T10:51:54.872Z,38.75
2022-08-28T10:54:27.570Z,38.73
2022-08-28T10:56:59.750Z,38.45
2022-08-28T10:59:32.223Z,38.24
2022-08-28T11:01:59.838Z,38.51
2022-08-28T11:04:29.371Z,38.07
2022-08-28T11:07:01.004Z,38.60
2022-08-28T11:09:35.322Z,38.05
2022-08-28T11:12:05.288Z,38.83
2022-08-28T11:14:34.966Z,38.64
2022-08-28T11:17:04.577Z,38.13
2022-08-28T11:19:56.537Z,37.30
2022-08-28T11:22:28.426Z,37.92
2022-08-28T11:25:09.702Z,37.29
2022-08-28T11:27:37.848Z,37.44
2022-08-28T11:30:30.977Z,36.58
2022-08-28T11:33:04.299Z,36.85
2022-08-28T11:35:45.072Z,36.36
2022-08-28T11:38:51.564Z,36.53
2022-08-28T11:41:20.774Z,35.67
2022-08-28T11:43:49.087Z,35.87
2022-08-28T11:46:34.879Z,35.11
2022-08-28T11:49:03.422Z,35.29
2022-08-28T11:51:56.141Z,34.91
2022-08-28T11:54:47.056Z,35.16
2022-08-28T11:57:17.922Z,34.68
2022-08-28T12:00:06.796Z,34.58
2022-08-28T12:02:49.845Z,34.32
2022-08-28T12:05:38.691Z,34.22
2022-08-28T12:08:05.552Z,34.18
2022-08-28T12:10:57.586Z,34.54
2022-08-28T12:13:52.649Z,32.78
2022-08-28T12:16:19.444Z,33.37
2022-08-28T12:19:04.047Z,33.40
2022-08-28T12:21:37.333Z,33.24
2022-08-28T12:24:14.720Z,33.07
2022-08-28T12:26:47.589Z,33.27
2022-08-28T12:29:27.827Z,31.26
2022-08-28T12:32:07.308Z,31.57
2022-08-28T12:34:46.342Z,30.99
2022-08-28T12:37:39.874Z,31.58
2022-08-28T12:40:21.987Z,32.24
2022-08-28T12:42:55.442Z,32.30
2022-08-28T12:45:29.669Z,32.38
2022-08-28T12:47:59.575Z,32.51
2022-08-28T12:50:32.458Z,32.63
2022-08-28T12:53:02.029Z,32.43
2022-08-28T12:55:28.925Z,32.28
2022-08-28T12:57:57.211Z,31.48
2022-08-28T13:00:26.222Z,31.29
2022-08-28T13:02:54.805Z,31.74
2022-08-28T13:05:32.212Z,31.57
2022-08-28T13:08:01.137Z,31.82
2022-08-28T13:10:30.663Z,31.36
2022-08-28T13:13:05.459Z,31.68
2022-08-28T13:15:47.629Z,30.65
2022-08-28T13:18:33.839Z,30.17
2022-08-28T13:21:34.081Z,30.84
2022-08-28T13:24:26.250Z,30.39
2022-08-28T13:27:02.859Z,29.15
2022-08-28T13:29:31.634Z,28.84
2022-08-28T13:32:00.082Z,28.69
2022-08-28T13:34:28.248Z,29.35
2022-08-28T13:36:57.004Z,28.90
2022-08-28T13:39:23.825Z,28.57
2022-08-28T13:41:53.799Z,28.57
2022-08-28T13:44:34.307Z,28.51
2022-08-28T13:47:03.477Z,27.84
2022-08-28T13:49:30.108Z,26.97
2022-08-28T13:51:58.819Z,26.69
2022-08-28T13:54:25.996Z,26.64
2022-08-28T13:56:54.930Z,26.96
2022-08-28T13:59:22.132Z,27.03
2022-08-28T14:01:54.503Z,26.61
2022-08-28T14:04:21.212Z,25.54
2022-08-28T14:06:48.267Z,25.52
2022-08-28T14:09:14.929Z,25.88
2022-08-28T14:11:41.658Z,26.29
2022-08-28T14:14:08.349Z,25.89
2022-08-28T14:16:39.585Z,25.86
2022-08-28T14:19:08.218Z,26.10
2022-08-28T14:21:37.066Z,26.10
2022-08-28T14:24:04.768Z,26.19
2022-08-28T14:26:31.518Z,26.53
2022-08-28T14:28:58.663Z,26.97
2022-08-28T14:31:26.573Z,27.64
2022-08-28T14:33:53.723Z,27.83
2022-08-28T14:36:24.279Z,28.25
2022-08-28T14:38:54.210Z,27.74
2022-08-28T14:41:22.054Z,27.20
2022-08-28T14:43:48.620Z,26.62
2022-08-28T14:46:16.312Z,27.51
2022-08-28T14:48:42.904Z,26.25
2022-08-28T14:51:09.596Z,26.90
2022-08-28T14:53:37.485Z,26.21
2022-08-28T14:56:06.338Z,26.60
2022-08-28T14:58:33.691Z,26.59
2022-08-28T15:01:01.131Z,26.65
2022-08-28T15:03:28.136Z,27.01
2022-08-28T15:06:00.113Z,27.24
2022-08-28T15:08:26.850Z,26.12
2022-08-28T15:10:55.381Z,25.64
2022-08-28T15:13:22.026Z,25.74
2022-08-28T15:15:48.681Z,25.59
2022-08-28T15:18:15.769Z,25.50
2022-08-28T15:20:45.134Z,24.63
2022-08-28T15:23:13.527Z,24.58
2022-08-28T15:25:40.656Z,24.34
2022-08-28T15:28:09.627Z,23.91
2022-08-28T15:30:36.356Z,24.15
2022-08-28T15:33:03.196Z,23.93
2022-08-28T15:35:29.731Z,24.50
2022-08-28T15:37:56.412Z,23.90
2022-08-28T15:40:23.224Z,24.19
2022-08-28T15:42:49.898Z,24.15
2022-08-28T15:45:17.834Z,23.68
2022-08-28T15:47:44.496Z,23.51
2022-08-28T15:50:11.428Z,23.42
2022-08-28T15:52:38.205Z,22.66
2022-08-28T15:55:05.399Z,22.87
2022-08-28T15:57:32.479Z,22.71
2022-08-28T15:59:59.046Z,22.70
2022-08-28T16:02:27.156Z,23.33
2022-08-28T16:04:54.113Z,22.33
2022-08-28T16:07:22.146Z,22.29
2022-08-28T16:09:49.259Z,22.40
2022-08-28T16:12:16.332Z,22.51
2022-08-28T16:14:42.942Z,22.49
2022-08-28T16:17:11.081Z,22.69
2022-08-28T16:19:40.060Z,21.63
2022-08-28T16:22:07.370Z,22.21
2022-08-28T16:24:33.960Z,22.78
2022-08-28T16:27:00.613Z,22.34
2022-08-28T16:29:27.173Z,22.59
2022-08-28T16:31:53.878Z,22.64
2022-08-28T16:34:21.009Z,22.61
2022-08-28T16:36:49.021Z,22.54
2022-08-28T16:39:15.786Z,22.50
2022-08-28T16:41:42.994Z,22.36
2022-08-28T16:44:09.591Z,22.31
2022-08-28T16:46:36.346Z,22.31
2022-08-28T16:49:03.845Z,22.66
2022-08-28T16:51:30.787Z,22.81
2022-08-28T16:53:58.741Z,22.61
2022-08-28T16:56:25.438Z,23.15
2022-08-28T16:58:53.025Z,22.54
2022-08-28T17:01:21.421Z,22.97
2022-08-28T17:03:51.866Z,22.58
2022-08-28T17:06:20.631Z,23.04
2022-08-28T17:08:47.326Z,23.10
2022-08-28T17:11:15.840Z,23.24
2022-08-28T17:13:42.970Z,23.37
2022-08-28T17:16:10.364Z,23.76
2022-08-28T17:18:39.098Z,24.19
2022-08-28T17:21:16.609Z,24.91
2022-08-28T17:23:43.337Z,25.62
2022-08-28T17:26:10.299Z,26.18
2022-08-28T17:28:38.528Z,26.52
2022-08-28T17:31:05.377Z,27.04
2022-08-28T17:33:31.944Z,27.61
2022-08-28T17:35:58.490Z,28.25
2022-08-28T17:38:26.081Z,28.59
2022-08-28T17:40:52.634Z,29.29
2022-08-28T17:43:19.284Z,29.67
2022-08-28T17:45:47.436Z,29.75
2022-08-28T17:48:14.093Z,30.55
2022-08-28T17:50:40.762Z,30.67
2022-08-28T17:53:07.310Z,30.94
2022-08-28T17:55:33.998Z,31.06
2022-08-28T17:58:00.586Z,31.41
2022-08-28T18:00:27.159Z,31.81
2022-08-28T18:02:55.045Z,32.11
2022-08-28T18:05:21.873Z,32.55
2022-08-28T18:07:48.603Z,32.59
2022-08-28T18:10:15.480Z,33.37
2022-08-28T18:12:42.127Z,33.65
2022-08-28T18:15:10.281Z,34.20
2022-08-28T18:17:37.449Z,34.44
2022-08-28T18:20:07.681Z,34.50
2022-08-28T18:22:34.647Z,35.00
2022-08-28T18:25:01.209Z,35.44
2022-08-28T18:27:27.960Z,35.52
2022-08-28T18:29:54.502Z,35.94
2022-08-28T18:32:21.051Z,36.39
2022-08-28T18:34:47.755Z,36.96
2022-08-28T18:37:16.259Z,37.17
2022-08-28T18:39:43.391Z,37.15
2022-08-28T18:42:11.162Z,37.85
2022-08-28T18:44:37.757Z,38.78
2022-08-28T18:47:04.562Z,38.56
2022-08-28T18:49:31.157Z,40.30
2022-08-28T18:51:57.721Z,40.36
2022-08-28T18:54:25.625Z,41.36
2022-08-28T18:56:57.360Z,41.97
2022-08-28T18:59:28.157Z,42.09
2022-08-28T19:01:54.786Z,42.44
2022-08-28T19:04:21.489Z,42.86
2022-08-28T19:06:48.072Z,43.66
2022-08-28T19:09:19.203Z,44.07
2022-08-28T19:11:48.934Z,44.82
2022-08-28T19:14:15.680Z,45.18
2022-08-28T19:16:42.313Z,45.74
2022-08-28T19:19:08.999Z,46.08
2022-08-28T19:21:36.717Z,46.45
2022-08-28T19:24:03.630Z,46.90
2022-08-28T19:26:30.874Z,47.50
2022-08-28T19:28:59.267Z,47.71
2022-08-28T19:31:27.049Z,48.13
2022-08-28T19:33:54.148Z,48.62
2022-08-28T19:36:21.105Z,48.93
2022-08-28T19:38:47.726Z,49.33
2022-08-28T19:41:14.448Z,49.55
2022-08-28T19:43:43.022Z,49.92
2022-08-28T19:46:18.482Z,49.83
2022-08-28T19:48:47.734Z,50.04
2022-08-28T19:51:17.593Z,50.38
2022-08-28T19:53:54.645Z,50.75
2022-08-28T19:56:23.772Z,51.40
2022-08-28T19:58:50.614Z,51.58
2022-08-28T20:01:18.660Z,51.58
2022-08-28T20:03:45.212Z,51.58
2022-08-28T20:06:11.882Z,51.96
2022-08-28T20:08:38.460Z,52.45
2022-08-28T20:11:05.090Z,52.68
2022-08-28T20:13:31.775Z,52.95
2022-08-28T20:16:03.893Z,53.69
2022-08-28T20:18:32.012Z,53.62
2022-08-28T20:20:58.882Z,54.07
2022-08-28T20:23:25.543Z,54.06
2022-08-28T20:25:52.930Z,54.16
2022-08-28T20:28:19.909Z,54.76
2022-08-28T20:30:46.698Z,54.86
2022-08-28T20:33:13.871Z,54.65
2022-08-28T20:35:41.832Z,54.56
2022-08-28T20:38:08.504Z,54.90
2022-08-28T20:40:35.130Z,55.04
2022-08-28T20:43:01.941Z,55.21
2022-08-28T20:45:28.586Z,55.36
2022-08-28T20:47:55.252Z,55.63
2022-08-28T20:50:21.837Z,55.85
2022-08-28T20:52:49.873Z,56.36
2022-08-28T20:55:16.470Z,56.08
2022-08-28T20:57:43.067Z,56.34
2022-08-28T21:00:11.235Z,56.59
2022-08-28T21:02:38.111Z,56.88
2022-08-28T21:05:05.735Z,57.22
2022-08-28T21:07:32.438Z,57.21
2022-08-28T21:10:07.199Z,57.90
2022-08-28T21:12:35.542Z,58.20
2022-08-28T21:15:02.850Z,58.36
2022-08-28T21:17:30.708Z,58.47
2022-08-28T21:19:59.532Z,58.25
2022-08-28T21:22:26.365Z,58.36
2022-08-28T21:24:52.919Z,58.56
2022-08-28T21:27:20.952Z,58.70
2022-08-28T21:29:47.718Z,58.93
2022-08-28T21:32:14.524Z,58.65
2022-08-28T21:34:41.054Z,58.82
2022-08-28T21:37:07.752Z,59.06
2022-08-28T21:39:34.921Z,59.31
2022-08-28T21:42:01.525Z,59.72
2022-08-28T21:44:29.717Z,59.82
2022-08-28T21:46:56.358Z,59.76
2022-08-28T21:49:23.007Z,60.38
2022-08-28T21:51:51.570Z,60.85
2022-08-28T21:54:18.308Z,60.56
2022-08-28T21:56:45.283Z,61.03
2022-08-28T21:59:12.341Z,61.14
2022-08-28T22:01:40.397Z,61.57
2022-08-28T22:04:07.298Z,62.32
2022-08-28T22:06:33.994Z,62.46
2022-08-28T22:09:00.902Z,62.29
2022-08-28T22:11:28.117Z,62.58
2022-08-28T22:13:55.725Z,62.91
2022-08-28T22:16:22.915Z,62.80
2022-08-28T22:18:51.283Z,63.12
2022-08-28T22:21:21.968Z,62.94
2022-08-28T22:23:48.612Z,63.05
2022-08-28T22:26:17.829Z,63.08
2022-08-28T22:28:44.976Z,63.68
2022-08-28T22:31:11.622Z,65.14
2022-08-28T22:33:38.629Z,64.83
2022-08-28T22:36:07.060Z,64.25
2022-08-28T22:38:33.662Z,64.20
2022-08-28T22:41:00.228Z,64.95
2022-08-28T22:43:26.902Z,65.28
2022-08-28T22:45:53.649Z,65.15
2022-08-28T22:48:20.361Z,65.42
2022-08-28T22:50:47.841Z,65.50
2022-08-28T22:53:17.922Z,65.70
2022-08-28T22:55:44.701Z,65.78
2022-08-28T22:58:11.798Z,65.56
2022-08-28T23:00:39.686Z,65.66
2022-08-28T23:03:06.392Z,66.02
2022-08-28T23:05:33.519Z,66.26
2022-08-28T23:08:00.210Z,66.37
2022-08-28T23:10:48.393Z,66.87
2022-08-28T23:13:15.242Z,67.32
2022-08-28T23:15:42.065Z,67.76
2022-08-28T23:18:08.820Z,67.45
2022-08-28T23:20:35.744Z,67.64
2022-08-28T23:23:02.413Z,67.60
2022-08-28T23:25:30.329Z,68.17
2022-08-28T23:27:56.921Z,69.27
2022-08-28T23:30:24.348Z,69.20
2022-08-28T23:32:51.048Z,68.96
2022-08-28T23:35:18.909Z,69.30
2022-08-28T23:37:48.896Z,69.74
2022-08-28T23:40:21.589Z,69.27
2022-08-28T23:42:49.918Z,69.38
2022-08-28T23:45:17.216Z,69.54
2022-08-28T23:47:44.510Z,69.19
2022-08-28T23:50:13.684Z,70.01
2022-08-28T23:52:40.711Z,70.05
2022-08-28T23:55:10.629Z,69.95
2022-08-28T23:57:37.299Z,69.52
